createdAt,value
2022-09-30T00:01:41.456Z,18.92
2022-09-30T00:04:11.424Z,18.08
2022-09-30T00:06:39.980Z,18.73
2022-09-30T00:09:11.541Z,18.98
2022-09-30T00:11:42.320Z,16.25
2022-09-30T00:14:14.704Z,16.98
2022-09-30T00:16:43.807Z,19.52
2022-09-30T00:19:13.868Z,19.05
2022-09-30T00:21:42.527Z,17.15
2022-09-30T00:24:11.287Z,20.38
2022-09-30T00:26:42.088Z,16.73
2022-09-30T00:29:11.057Z,18.77
2022-09-30T00:31:39.791Z,21.02
2022-09-30T00:34:08.943Z,18.45
2022-09-30T00:36:41.759Z,21.52
2022-09-30T00:39:11.507Z,20.65
2022-09-30T00:41:41.678Z,19.95
2022-09-30T00:44:51.127Z,17.58
2022-09-30T00:47:37.610Z,17.50
2022-09-30T00:50:12.346Z,17.35
2022-09-30T00:52:40.601Z,20.40
2022-09-30T00:55:11.818Z,19.83
2022-09-30T00:57:42.563Z,20.77
2022-09-30T01:00:11.561Z,19.30
2022-09-30T01:02:40.337Z,17.58
2022-09-30T01:05:10.337Z,17.52
2022-09-30T01:07:38.959Z,25.13
2022-09-30T01:10:08.069Z,20.52
2022-09-30T01:12:36.654Z,16.73
2022-09-30T01:15:09.984Z,16.20
2022-09-30T01:17:42.887Z,16.92
2022-09-30T01:20:29.801Z,21.27
2022-09-30T01:23:05.714Z,20.83
2022-09-30T01:25:55.922Z,20.52
2022-09-30T01:28:52.234Z,28.73
2022-09-30T01:31:31.835Z,17.00
2022-09-30T01:34:04.767Z,32.47
2022-09-30T01:36:43.438Z,22.02
2022-09-30T01:39:19.940Z,22.33
2022-09-30T01:41:53.290Z,20.85
2022-09-30T01:44:26.345Z,19.67
2022-09-30T01:46:58.260Z,23.88
2022-09-30T01:49:32.026Z,17.10
2022-09-30T01:52:04.133Z,21.23
2022-09-30T01:54:35.337Z,22.55
2022-09-30T01:57:05.205Z,23.13
2022-09-30T01:59:35.361Z,19.10
2022-09-30T02:02:08.453Z,26.48
2022-09-30T02:04:40.742Z,31.15
2022-09-30T02:07:12.038Z,36.97
2022-09-30T02:09:43.082Z,21.27
2022-09-30T02:12:14.989Z,28.30
2022-09-30T02:14:46.050Z,29.23
2022-09-30T02:17:17.253Z,70.38
2022-09-30T02:19:46.939Z,107.75
2022-09-30T02:22:17.061Z,67.50
2022-09-30T02:24:47.459Z,52.38
2022-09-30T02:27:18.537Z,22.23
2022-09-30T02:29:50.415Z,20.50
2022-09-30T02:32:22.508Z,16.67
2022-09-30T02:34:52.794Z,22.60
2022-09-30T02:37:22.466Z,19.73
2022-09-30T02:39:53.012Z,16.90
2022-09-30T02:42:23.165Z,15.15
2022-09-30T02:44:52.115Z,22.92
2022-09-30T02:47:26.946Z,35.88
2022-09-30T02:49:58.802Z,47.13
2022-09-30T02:52:29.439Z,48.63
2022-09-30T02:55:04.368Z,46.38
2022-09-30T02:57:38.174Z,68.90
2022-09-30T03:00:12.529Z,115.25
2022-09-30T03:02:43.048Z,84.57
2022-09-30T03:05:11.830Z,109.35
2022-09-30T03:07:40.266Z,119.88
2022-09-30T03:10:14.801Z,130.95
2022-09-30T03:12:48.537Z,149.48
2022-09-30T03:15:26.543Z,147.13
2022-09-30T03:18:07.051Z,71.10
2022-09-30T03:20:43.116Z,133.88
2022-09-30T03:23:22.647Z,120.20
2022-09-30T03:25:55.268Z,81.43
2022-09-30T03:28:26.724Z,73.90
2022-09-30T03:31:00.998Z,85.57
2022-09-30T03:33:34.226Z,57.53
2022-09-30T03:36:04.116Z,32.30
2022-09-30T03:38:40.620Z,41.88
2022-09-30T03:41:12.108Z,71.68
2022-09-30T03:43:44.440Z,64.55
2022-09-30T03:46:18.326Z,57.95
2022-09-30T03:48:48.607Z,29.00
2022-09-30T03:51:17.195Z,82.22
2022-09-30T03:53:47.284Z,54.00
2022-09-30T03:56:16.740Z,116.70
2022-09-30T03:58:45.826Z,144.35
2022-09-30T04:01:21.883Z,149.10
2022-09-30T04:03:53.296Z,142.98
2022-09-30T04:06:24.775Z,165.65
2022-09-30T04:08:54.286Z,78.32
2022-09-30T04:11:23.265Z,119.78
2022-09-30T04:13:54.349Z,131.82
2022-09-30T04:16:22.899Z,136.07
2022-09-30T04:18:52.994Z,77.07
2022-09-30T04:21:21.604Z,135.18
2022-09-30T04:23:50.721Z,118.28
2022-09-30T04:26:20.660Z,81.78
2022-09-30T04:28:49.416Z,45.28
2022-09-30T04:31:21.837Z,71.60
2022-09-30T04:33:51.921Z,71.00
2022-09-30T04:36:22.270Z,157.98
2022-09-30T04:38:51.480Z,131.65
2022-09-30T04:41:20.045Z,139.98
2022-09-30T04:43:49.682Z,126.25
2022-09-30T04:46:18.755Z,157.57
2022-09-30T04:48:47.882Z,108.88
2022-09-30T04:51:16.767Z,111.15
2022-09-30T04:53:46.879Z,114.05
2022-09-30T04:56:17.024Z,162.65
2022-09-30T04:58:46.602Z,132.65
2022-09-30T05:01:16.894Z,107.25
2022-09-30T05:03:45.714Z,152.55
2022-09-30T05:06:15.021Z,133.57
2022-09-30T05:08:45.966Z,176.90
2022-09-30T05:11:18.891Z,138.55
2022-09-30T05:13:48.052Z,181.55
2022-09-30T05:16:16.836Z,86.88
2022-09-30T05:18:47.316Z,133.10
2022-09-30T05:21:16.239Z,130.02
2022-09-30T05:23:45.792Z,204.55
2022-09-30T05:26:14.411Z,184.85
2022-09-30T05:28:46.351Z,224.75
2022-09-30T05:31:14.833Z,185.70
2022-09-30T05:33:51.704Z,47.83
2022-09-30T05:36:23.159Z,112.18
2022-09-30T05:38:53.211Z,149.25
2022-09-30T05:41:22.369Z,171.10
2022-09-30T05:44:01.771Z,157.13
2022-09-30T05:46:30.573Z,129.40
2022-09-30T05:48:59.196Z,163.05
2022-09-30T05:51:27.990Z,93.38
2022-09-30T05:53:56.465Z,42.97
2022-09-30T05:56:24.967Z,82.68
2022-09-30T05:58:55.076Z,89.60
2022-09-30T06:01:23.985Z,69.78
2022-09-30T06:03:53.011Z,69.70
2022-09-30T06:06:21.970Z,58.33
2022-09-30T06:08:51.170Z,64.70
2022-09-30T06:11:20.416Z,61.28
2022-09-30T06:13:49.614Z,129.02
2022-09-30T06:16:20.162Z,78.15
2022-09-30T06:18:48.635Z,157.73
2022-09-30T06:21:18.151Z,133.63
2022-09-30T06:23:46.999Z,106.80
2022-09-30T06:26:16.310Z,83.40
2022-09-30T06:28:45.464Z,115.22
2022-09-30T06:31:15.063Z,166.02
2022-09-30T06:33:44.926Z,166.60
2022-09-30T06:36:13.631Z,141.02
2022-09-30T06:38:42.830Z,103.70
2022-09-30T06:41:11.252Z,108.32
2022-09-30T06:43:46.945Z,187.13
2022-09-30T06:46:30.290Z,218.32
2022-09-30T06:49:11.615Z,146.18
2022-09-30T06:51:42.489Z,205.98
2022-09-30T06:54:11.450Z,222.43
2022-09-30T06:56:39.673Z,98.72
2022-09-30T06:59:08.775Z,127.85
2022-09-30T07:01:37.473Z,153.15
2022-09-30T07:04:10.254Z,240.65
2022-09-30T07:06:39.681Z,206.65
2022-09-30T07:09:09.539Z,83.85
2022-09-30T07:11:38.896Z,125.30
2022-09-30T07:14:07.380Z,176.07
2022-09-30T07:16:36.094Z,69.60
2022-09-30T07:19:05.173Z,90.45
2022-09-30T07:21:35.228Z,145.40
2022-09-30T07:24:03.776Z,80.05
2022-09-30T07:26:33.185Z,37.53
2022-09-30T07:29:03.408Z,49.40
2022-09-30T07:31:34.602Z,25.67
2022-09-30T07:34:04.363Z,63.92
2022-09-30T07:36:37.225Z,109.63
2022-09-30T07:39:07.070Z,80.85
2022-09-30T07:41:36.904Z,156.07
2022-09-30T07:44:06.902Z,52.13
2022-09-30T07:46:36.726Z,115.10
2022-09-30T07:49:09.077Z,42.83
2022-09-30T07:51:39.927Z,57.70
2022-09-30T07:54:09.577Z,48.03
2022-09-30T07:57:08.208Z,27.27
2022-09-30T07:59:28.523Z,28.58
2022-09-30T08:01:56.913Z,29.23
2022-09-30T08:04:25.915Z,43.47
2022-09-30T08:06:56.859Z,26.98
2022-09-30T08:09:26.126Z,31.33
2022-09-30T08:11:54.846Z,38.88
2022-09-30T08:14:24.437Z,32.38
2022-09-30T08:16:53.387Z,27.10
2022-09-30T08:19:22.470Z,30.15
2022-09-30T08:21:53.263Z,34.47
2022-09-30T08:24:23.485Z,40.28
2022-09-30T08:26:52.814Z,39.55
2022-09-30T08:29:42.709Z,40.60
2022-09-30T08:32:09.502Z,37.72
2022-09-30T08:34:37.882Z,33.20
2022-09-30T08:37:09.549Z,35.00
2022-09-30T08:39:40.126Z,35.75
2022-09-30T08:42:48.377Z,40.30
2022-09-30T08:45:23.746Z,38.15
2022-09-30T08:47:56.400Z,33.75
2022-09-30T08:50:26.687Z,37.65
2022-09-30T08:52:57.381Z,30.90
2022-09-30T08:55:28.183Z,37.35
2022-09-30T08:57:57.605Z,38.05
2022-09-30T09:00:26.595Z,35.15
2022-09-30T09:02:56.759Z,35.10
2022-09-30T09:05:33.685Z,36.22
2022-09-30T09:08:05.134Z,32.55
2022-09-30T09:10:41.259Z,29.90
2022-09-30T09:13:16.018Z,34.80
2022-09-30T09:15:51.156Z,41.40
2022-09-30T09:18:32.085Z,40.40
2022-09-30T09:21:01.084Z,34.92
2022-09-30T09:23:29.428Z,33.70
2022-09-30T09:26:00.297Z,35.50
2022-09-30T09:28:33.888Z,35.10
2022-09-30T09:31:03.240Z,31.00
2022-09-30T09:33:33.046Z,29.20
2022-09-30T09:36:09.288Z,35.08
2022-09-30T09:38:41.576Z,35.35
2022-09-30T09:41:17.320Z,43.10
2022-09-30T09:43:53.089Z,42.78
2022-09-30T09:46:24.879Z,36.30
2022-09-30T09:49:21.673Z,41.03
2022-09-30T09:51:50.776Z,48.63
2022-09-30T09:54:20.795Z,40.42
2022-09-30T09:56:55.004Z,43.10
2022-09-30T09:59:24.120Z,39.70
2022-09-30T10:01:54.407Z,37.20
2022-09-30T10:04:24.541Z,38.63
2022-09-30T10:06:54.578Z,34.67
2022-09-30T10:09:33.810Z,34.78
2022-09-30T10:12:29.269Z,37.00
2022-09-30T10:15:02.204Z,38.30
2022-09-30T10:17:33.142Z,34.90
2022-09-30T10:20:04.840Z,30.65
2022-09-30T10:22:33.453Z,34.20
2022-09-30T10:25:22.882Z,37.05
2022-09-30T10:27:57.404Z,34.55
2022-09-30T10:30:36.364Z,26.48
2022-09-30T10:33:05.032Z,30.48
2022-09-30T10:35:33.782Z,32.92
2022-09-30T10:38:02.891Z,29.80
2022-09-30T10:40:31.299Z,25.52
2022-09-30T10:43:00.872Z,31.08
2022-09-30T10:45:31.481Z,24.83
2022-09-30T10:47:59.588Z,36.47
2022-09-30T10:50:28.729Z,36.50
2022-09-30T10:52:58.177Z,48.53
2022-09-30T10:55:32.880Z,41.95
2022-09-30T10:58:22.467Z,37.53
2022-09-30T11:00:51.616Z,37.67
2022-09-30T11:03:21.873Z,39.17
2022-09-30T11:05:51.326Z,36.67
2022-09-30T11:08:21.250Z,33.65
2022-09-30T11:10:52.572Z,32.85
2022-09-30T11:13:25.688Z,30.42
2022-09-30T11:15:59.423Z,34.63
2022-09-30T11:18:31.280Z,28.80
2022-09-30T11:21:02.103Z,33.03
2022-09-30T11:23:32.321Z,26.38
2022-09-30T11:26:03.676Z,26.88
2022-09-30T11:28:40.749Z,28.13
2022-09-30T11:31:14.758Z,24.00
2022-09-30T11:33:49.926Z,26.08
2022-09-30T11:36:22.620Z,25.92
2022-09-30T11:39:05.133Z,23.55
2022-09-30T11:41:35.030Z,19.20
2022-09-30T11:44:10.378Z,19.70
2022-09-30T11:47:17.138Z,13.48
2022-09-30T11:49:55.678Z,12.82
2022-09-30T11:52:27.588Z,17.73
2022-09-30T11:55:06.587Z,15.05
2022-09-30T11:57:38.480Z,15.02
2022-09-30T12:00:11.699Z,20.90
2022-09-30T12:02:41.148Z,17.17
2022-09-30T12:05:12.238Z,17.13
2022-09-30T12:07:44.295Z,16.67
2022-09-30T12:10:22.887Z,15.10
2022-09-30T12:12:53.972Z,19.05
2022-09-30T12:15:26.419Z,17.50
2022-09-30T12:17:59.921Z,13.68
2022-09-30T12:20:30.379Z,15.75
2022-09-30T12:23:01.850Z,11.13
2022-09-30T12:25:32.737Z,14.10
2022-09-30T12:28:24.831Z,14.48
2022-09-30T12:31:00.160Z,14.40
2022-09-30T12:33:35.176Z,11.88
2022-09-30T12:36:22.800Z,12.73
2022-09-30T12:38:57.332Z,12.52
2022-09-30T12:41:42.822Z,10.13
2022-09-30T12:44:55.067Z,12.38
2022-09-30T12:47:36.779Z,8.90
2022-09-30T12:50:07.276Z,7.75
2022-09-30T12:52:37.427Z,7.60
2022-09-30T12:55:08.983Z,6.68
2022-09-30T12:57:41.359Z,7.68
2022-09-30T13:00:16.510Z,7.88
2022-09-30T13:02:48.456Z,7.80
2022-09-30T13:05:54.328Z,6.65
2022-09-30T13:08:41.611Z,8.18
2022-09-30T13:11:33.527Z,4.93
2022-09-30T13:14:12.902Z,6.57
2022-09-30T13:17:01.600Z,5.95
2022-09-30T13:19:36.653Z,10.23
2022-09-30T13:22:54.413Z,5.18
2022-09-30T13:25:22.819Z,7.72
2022-09-30T13:27:53.992Z,9.73
2022-09-30T13:30:43.327Z,7.13
2022-09-30T13:33:32.134Z,2.95
2022-09-30T13:36:10.587Z,6.03
2022-09-30T13:38:41.263Z,2.83
2022-09-30T13:41:16.774Z,4.38
2022-09-30T13:43:46.506Z,3.85
2022-09-30T13:46:24.531Z,5.70
2022-09-30T13:48:53.790Z,8.70
2022-09-30T13:51:24.550Z,4.20
2022-09-30T13:53:54.550Z,4.30
2022-09-30T13:56:25.100Z,3.97
2022-09-30T13:59:15.968Z,3.30
2022-09-30T14:02:00.327Z,5.72
2022-09-30T14:07:10.706Z,5.35
2022-09-30T14:12:30.510Z,3.80
2022-09-30T14:15:27.907Z,2.65
2022-09-30T14:18:24.433Z,2.78
2022-09-30T14:21:13.637Z,3.17
2022-09-30T14:23:43.662Z,3.53
2022-09-30T14:26:21.867Z,4.15
2022-09-30T14:28:53.129Z,2.70
2022-09-30T14:31:21.951Z,1.80
2022-09-30T14:33:50.924Z,4.72
2022-09-30T14:39:14.690Z,4.03
2022-09-30T14:41:43.701Z,6.15
2022-09-30T14:44:15.956Z,3.97
2022-09-30T14:46:47.202Z,3.22
2022-09-30T14:49:17.229Z,5.10
2022-09-30T14:51:48.587Z,6.60
2022-09-30T14:54:23.100Z,4.05
2022-09-30T14:56:54.880Z,4.45
2022-09-30T14:59:27.276Z,2.50
2022-09-30T15:01:58.353Z,4.43
2022-09-30T15:04:27.938Z,4.13
2022-09-30T15:06:57.001Z,3.53
2022-09-30T15:09:31.107Z,8.88
2022-09-30T15:14:32.934Z,5.15
2022-09-30T15:17:06.212Z,5.68
2022-09-30T15:19:35.819Z,3.50
2022-09-30T15:22:05.295Z,5.03
2022-09-30T15:24:35.535Z,3.55
2022-09-30T15:27:04.212Z,3.30
2022-09-30T15:29:33.115Z,2.83
2022-09-30T15:32:02.781Z,3.70
2022-09-30T15:34:31.530Z,5.78
2022-09-30T15:37:07.000Z,2.10
2022-09-30T15:39:56.219Z,2.25
2022-09-30T15:42:31.176Z,3.42
2022-09-30T15:45:00.457Z,1.77
2022-09-30T15:47:29.252Z,2.70
2022-09-30T15:49:57.445Z,5.35
2022-09-30T15:52:37.616Z,3.70
2022-09-30T15:55:38.828Z,4.05
2022-09-30T15:58:38.988Z,3.05
2022-09-30T16:01:21.667Z,2.85
2022-09-30T16:03:54.466Z,2.55
2022-09-30T16:06:35.828Z,3.65
2022-09-30T16:09:06.953Z,4.13
2022-09-30T16:11:36.941Z,3.60
2022-09-30T16:14:09.852Z,1.92
2022-09-30T16:16:39.822Z,3.25
2022-09-30T16:19:08.259Z,6.32
2022-09-30T16:21:45.047Z,3.72
2022-09-30T16:24:44.532Z,3.90
2022-09-30T16:27:30.489Z,2.60
2022-09-30T16:30:01.478Z,5.18
2022-09-30T16:32:31.576Z,4.75
2022-09-30T16:35:00.057Z,6.25
2022-09-30T16:37:28.308Z,3.83
2022-09-30T16:39:58.304Z,4.20
2022-09-30T16:42:27.388Z,5.25
2022-09-30T16:44:56.070Z,5.25
2022-09-30T16:47:26.765Z,6.35
2022-09-30T16:49:55.483Z,9.77
2022-09-30T16:52:24.887Z,6.95
2022-09-30T16:54:53.931Z,5.85
2022-09-30T16:57:22.268Z,4.38
2022-09-30T16:59:50.752Z,19.25
2022-09-30T17:02:19.029Z,24.73
2022-09-30T17:04:48.860Z,13.98
2022-09-30T17:07:17.655Z,14.15
2022-09-30T17:09:47.979Z,11.90
2022-09-30T17:12:16.424Z,16.17
2022-09-30T17:14:45.024Z,8.40
2022-09-30T17:17:14.154Z,12.98
2022-09-30T17:19:43.765Z,10.18
2022-09-30T17:22:13.752Z,16.98
2022-09-30T17:24:42.571Z,9.18
2022-09-30T17:27:11.441Z,20.02
2022-09-30T17:29:42.252Z,11.75
2022-09-30T17:32:11.306Z,46.15
2022-09-30T17:34:42.403Z,41.25
2022-09-30T17:37:13.607Z,30.52
2022-09-30T17:39:42.136Z,27.17
2022-09-30T17:42:44.050Z,11.38
2022-09-30T17:45:12.538Z,13.30
2022-09-30T17:47:41.744Z,15.50
2022-09-30T17:50:13.195Z,21.17
2022-09-30T17:52:43.504Z,18.15
2022-09-30T17:55:11.942Z,16.92
2022-09-30T17:57:40.348Z,18.13
2022-09-30T18:00:09.787Z,15.73
2022-09-30T18:02:38.730Z,17.30
2022-09-30T18:05:07.776Z,17.52
2022-09-30T18:07:36.335Z,15.07
2022-09-30T18:10:08.437Z,19.00
2022-09-30T18:12:36.913Z,14.32
2022-09-30T18:15:05.794Z,9.23
2022-09-30T18:17:34.299Z,13.32
2022-09-30T18:20:03.147Z,18.58
2022-09-30T18:22:31.392Z,16.67
2022-09-30T18:25:25.742Z,32.67
2022-09-30T18:27:57.832Z,13.35
2022-09-30T18:30:27.093Z,9.43
2022-09-30T18:32:56.285Z,7.18
2022-09-30T18:35:25.424Z,6.55
2022-09-30T18:37:54.056Z,14.02
2022-09-30T18:40:22.988Z,14.82
2022-09-30T18:42:58.917Z,9.20
2022-09-30T18:45:27.437Z,11.35
2022-09-30T18:47:56.824Z,7.75
2022-09-30T18:50:25.610Z,5.97
2022-09-30T18:52:54.314Z,6.30
2022-09-30T18:55:22.808Z,9.82
2022-09-30T18:57:51.625Z,10.35
2022-09-30T19:00:21.803Z,11.65
2022-09-30T19:02:50.982Z,10.27
2022-09-30T19:05:19.631Z,10.68
2022-09-30T19:07:48.079Z,14.13
2022-09-30T19:10:16.873Z,8.57
2022-09-30T19:12:45.997Z,11.45
2022-09-30T19:15:16.601Z,9.98
2022-09-30T19:17:46.951Z,11.02
2022-09-30T19:20:17.384Z,13.02
2022-09-30T19:22:51.483Z,12.85
2022-09-30T19:27:49.590Z,39.85
2022-09-30T19:30:20.010Z,19.77
2022-09-30T19:32:51.766Z,25.45
2022-09-30T19:35:31.079Z,40.30
2022-09-30T19:38:04.506Z,49.67
2022-09-30T19:43:07.138Z,37.30
2022-09-30T19:45:35.722Z,58.00
2022-09-30T19:48:05.732Z,33.95
2022-09-30T19:50:34.872Z,74.10
2022-09-30T19:53:03.494Z,62.95
2022-09-30T19:55:40.173Z,28.58
2022-09-30T19:58:14.308Z,41.00
2022-09-30T20:00:47.072Z,51.47
2022-09-30T20:03:17.110Z,61.17
2022-09-30T20:05:45.763Z,63.65
2022-09-30T20:08:14.116Z,75.93
2022-09-30T20:10:42.546Z,71.63
2022-09-30T20:13:11.116Z,64.85
2022-09-30T20:15:51.373Z,81.93
2022-09-30T20:18:21.311Z,61.22
2022-09-30T20:20:49.748Z,40.70
2022-09-30T20:23:19.513Z,28.58
2022-09-30T20:25:48.195Z,47.50
2022-09-30T20:28:16.944Z,45.97
2022-09-30T20:30:46.192Z,67.72
2022-09-30T20:33:17.560Z,67.63
2022-09-30T20:35:48.896Z,88.88
2022-09-30T20:38:25.040Z,35.70
2022-09-30T20:40:56.983Z,107.90
2022-09-30T20:43:28.278Z,42.25
2022-09-30T20:45:59.911Z,49.13
2022-09-30T20:48:32.696Z,32.33
2022-09-30T20:51:07.392Z,51.92
2022-09-30T20:53:39.774Z,50.30
2022-09-30T20:56:09.633Z,39.88
2022-09-30T20:58:38.530Z,101.22
2022-09-30T21:01:08.881Z,57.75
2022-09-30T21:03:37.610Z,50.83
2022-09-30T21:06:08.290Z,97.60
2022-09-30T21:08:39.049Z,65.00
2022-09-30T21:11:07.705Z,53.33
2022-09-30T21:13:38.451Z,45.05
2022-09-30T21:16:08.759Z,32.47
2022-09-30T21:18:37.294Z,39.83
2022-09-30T21:21:07.473Z,30.80
2022-09-30T21:23:38.357Z,34.03
2022-09-30T21:26:07.715Z,53.10
2022-09-30T21:28:37.262Z,26.73
2022-09-30T21:31:06.377Z,194.75
2022-09-30T21:33:35.459Z,118.88
2022-09-30T21:36:05.034Z,362.75
2022-09-30T21:38:36.065Z,362.35
2022-09-30T21:41:06.114Z,90.43
2022-09-30T21:43:35.134Z,96.20
2022-09-30T21:46:04.831Z,81.57
2022-09-30T21:48:34.231Z,140.45
2022-09-30T21:51:11.911Z,71.30
2022-09-30T21:53:41.927Z,81.90
2022-09-30T21:56:15.061Z,162.13
2022-09-30T21:58:44.545Z,359.27
2022-09-30T22:01:13.629Z,165.02
2022-09-30T22:03:43.059Z,78.47
2022-09-30T22:06:12.024Z,75.07
2022-09-30T22:08:43.295Z,141.32
2022-09-30T22:11:12.665Z,151.82
2022-09-30T22:13:41.842Z,173.95
2022-09-30T22:16:11.030Z,176.43
2022-09-30T22:18:40.538Z,295.58
2022-09-30T22:21:11.038Z,302.92
2022-09-30T22:23:40.020Z,257.45
2022-09-30T22:26:11.225Z,234.32
2022-09-30T22:28:41.548Z,364.65
2022-09-30T22:31:16.638Z,250.38
2022-09-30T22:34:04.191Z,215.75
2022-09-30T22:36:49.751Z,247.15
2022-09-30T22:39:19.020Z,356.38
2022-09-30T22:41:50.722Z,372.85
2022-09-30T22:44:19.303Z,387.42
2022-09-30T22:46:48.470Z,438.17
2022-09-30T22:49:17.140Z,298.85
2022-09-30T22:51:46.877Z,517.72
2022-09-30T22:54:17.136Z,530.83
2022-09-30T22:56:46.135Z,589.17
2022-09-30T22:59:16.579Z,491.80
2022-09-30T23:01:50.472Z,255.93
2022-09-30T23:04:20.303Z,352.17
2022-09-30T23:06:52.144Z,272.92
2022-09-30T23:09:22.389Z,299.65
2022-09-30T23:11:54.772Z,248.27
2022-09-30T23:14:25.999Z,443.10
2022-09-30T23:16:54.673Z,208.38
2022-09-30T23:19:24.918Z,187.02
2022-09-30T23:21:54.112Z,447.55
2022-09-30T23:24:23.417Z,244.35
2022-09-30T23:26:52.493Z,282.92
2022-09-30T23:29:20.803Z,304.80
2022-09-30T23:31:51.121Z,186.65
2022-09-30T23:34:20.408Z,55.08
2022-09-30T23:36:49.088Z,52.47
2022-09-30T23:39:19.754Z,43.70
2022-09-30T23:41:48.245Z,53.65
2022-09-30T23:44:19.191Z,175.13
2022-09-30T23:47:02.216Z,583.47
2022-09-30T23:49:35.484Z,271.60
2022-09-30T23:52:09.218Z,184.50
2022-09-30T23:54:41.245Z,186.27
2022-09-30T23:57:10.930Z,152.07
2022-09-30T23:59:39.725Z,321.95
